sensor_id;sensor_type;location;lat;lon;timestamp;temperature;humidity
35960;DHT22;22043;50.970;7.192;2022-07-24T00:00:29;17.90;99.90
35960;DHT22;22043;50.970;7.192;2022-07-24T00:02:54;17.90;99.90
35960;DHT22;22043;50.970;7.192;2022-07-24T00:05:20;17.80;99.90
35960;DHT22;22043;50.970;7.192;2022-07-24T00:07:46;17.80;99.90
35960;DHT22;22043;50.970;7.192;2022-07-24T00:10:12;17.80;99.90
35960;DHT22;22043;50.970;7.192;2022-07-24T00:12:38;17.80;99.90
35960;DHT22;22043;50.970;7.192;2022-07-24T00:15:04;17.70;99.90
35960;DHT22;22043;50.970;7.192;2022-07-24T00:17:30;17.70;99.90
35960;DHT22;22043;50.970;7.192;2022-07-24T00:19:56;17.70;99.90
35960;DHT22;22043;50.970;7.192;2022-07-24T00:22:21;17.70;99.90
35960;DHT22;22043;50.970;7.192;2022-07-24T00:24:49;17.70;99.90
35960;DHT22;22043;50.970;7.192;2022-07-24T00:27:15;17.70;99.90
35960;DHT22;22043;50.970;7.192;2022-07-24T00:29:40;17.70;99.90
35960;DHT22;22043;50.970;7.192;2022-07-24T00:32:06;17.70;99.90
35960;DHT22;22043;50.970;7.192;2022-07-24T00:34:32;17.70;99.90
35960;DHT22;22043;50.970;7.192;2022-07-24T00:36:58;17.70;99.90
35960;DHT22;22043;50.970;7.192;2022-07-24T00:39:23;17.70;99.90
35960;DHT22;22043;50.970;7.192;2022-07-24T00:41:49;17.70;99.90
35960;DHT22;22043;50.970;7.192;2022-07-24T00:44:19;17.70;99.90
35960;DHT22;22043;50.970;7.192;2022-07-24T00:46:46;17.70;99.90
35960;DHT22;22043;50.970;7.192;2022-07-24T00:49:15;17.70;99.90
35960;DHT22;22043;50.970;7.192;2022-07-24T00:51:42;17.70;99.90
35960;DHT22;22043;50.970;7.192;2022-07-24T00:54:10;17.70;99.90
35960;DHT22;22043;50.970;7.192;2022-07-24T00:56:36;17.70;99.90
35960;DHT22;22043;50.970;7.192;2022-07-24T00:59:03;17.80;99.90
35960;DHT22;22043;50.970;7.192;2022-07-24T01:01:30;17.80;99.90
35960;DHT22;22043;50.970;7.192;2022-07-24T01:03:57;17.80;99.90
35960;DHT22;22043;50.970;7.192;2022-07-24T01:06:23;17.80;99.90
35960;DHT22;22043;50.970;7.192;2022-07-24T01:08:50;17.80;99.90
35960;DHT22;22043;50.970;7.192;2022-07-24T01:11:16;17.80;99.90
35960;DHT22;22043;50.970;7.192;2022-07-24T01:13:42;17.80;99.90
35960;DHT22;22043;50.970;7.192;2022-07-24T01:16:08;17.80;99.90
35960;DHT22;22043;50.970;7.192;2022-07-24T01:18:35;17.90;99.90
35960;DHT22;22043;50.970;7.192;2022-07-24T01:21:01;17.80;99.90
35960;DHT22;22043;50.970;7.192;2022-07-24T01:23:27;17.80;99.90
35960;DHT22;22043;50.970;7.192;2022-07-24T01:25:53;17.80;99.90
35960;DHT22;22043;50.970;7.192;2022-07-24T01:28:19;17.80;99.90
35960;DHT22;22043;50.970;7.192;2022-07-24T01:30:45;17.80;99.90
35960;DHT22;22043;50.970;7.192;2022-07-24T01:33:11;17.80;99.90
35960;DHT22;22043;50.970;7.192;2022-07-24T01:35:37;17.80;99.90
35960;DHT22;22043;50.970;7.192;2022-07-24T01:38:03;17.80;99.90
35960;DHT22;22043;50.970;7.192;2022-07-24T01:40:29;17.70;99.90
35960;DHT22;22043;50.970;7.192;2022-07-24T01:42:54;17.70;99.90
35960;DHT22;22043;50.970;7.192;2022-07-24T01:45:21;17.70;99.90
35960;DHT22;22043;50.970;7.192;2022-07-24T01:47:47;17.70;99.90
35960;DHT22;22043;50.970;7.192;2022-07-24T01:50:14;17.70;99.90
35960;DHT22;22043;50.970;7.192;2022-07-24T01:52:40;17.70;99.90
35960;DHT22;22043;50.970;7.192;2022-07-24T01:55:06;17.70;99.90
35960;DHT22;22043;50.970;7.192;2022-07-24T01:57:33;17.70;99.90
35960;DHT22;22043;50.970;7.192;2022-07-24T01:59:59;17.70;99.90
35960;DHT22;22043;50.970;7.192;2022-07-24T02:02:26;17.70;99.90
35960;DHT22;22043;50.970;7.192;2022-07-24T02:04:52;17.70;99.90
35960;DHT22;22043;50.970;7.192;2022-07-24T02:07:17;17.70;99.90
35960;DHT22;22043;50.970;7.192;2022-07-24T02:09:43;17.70;99.90
35960;DHT22;22043;50.970;7.192;2022-07-24T02:12:09;17.70;99.90
35960;DHT22;22043;50.970;7.192;2022-07-24T02:14:34;17.70;99.90
35960;DHT22;22043;50.970;7.192;2022-07-24T02:17:00;17.70;99.90
35960;DHT22;22043;50.970;7.192;2022-07-24T02:19:26;17.70;99.90
35960;DHT22;22043;50.970;7.192;2022-07-24T02:21:51;17.70;99.90
35960;DHT22;22043;50.970;7.192;2022-07-24T02:24:17;17.70;99.90
35960;DHT22;22043;50.970;7.192;2022-07-24T02:26:43;17.70;99.90
35960;DHT22;22043;50.970;7.192;2022-07-24T02:29:08;17.70;99.90
35960;DHT22;22043;50.970;7.192;2022-07-24T02:31:34;17.70;99.90
35960;DHT22;22043;50.970;7.192;2022-07-24T02:34:00;17.70;99.90
35960;DHT22;22043;50.970;7.192;2022-07-24T02:36:26;17.70;99.90
35960;DHT22;22043;50.970;7.192;2022-07-24T02:38:52;17.70;99.90
35960;DHT22;22043;50.970;7.192;2022-07-24T02:41:18;17.70;99.90
35960;DHT22;22043;50.970;7.192;2022-07-24T02:43:44;17.70;99.90
35960;DHT22;22043;50.970;7.192;2022-07-24T02:46:09;17.70;99.90
35960;DHT22;22043;50.970;7.192;2022-07-24T02:48:35;17.70;99.90
35960;DHT22;22043;50.970;7.192;2022-07-24T02:51:02;17.60;99.90
35960;DHT22;22043;50.970;7.192;2022-07-24T02:53:28;17.60;99.90
35960;DHT22;22043;50.970;7.192;2022-07-24T02:55:54;17.60;99.90
35960;DHT22;22043;50.970;7.192;2022-07-24T02:58:24;17.60;99.90
35960;DHT22;22043;50.970;7.192;2022-07-24T03:00:49;17.60;99.90
35960;DHT22;22043;50.970;7.192;2022-07-24T03:03:15;17.60;99.90
35960;DHT22;22043;50.970;7.192;2022-07-24T03:05:41;17.60;99.90
35960;DHT22;22043;50.970;7.192;2022-07-24T03:08:06;17.60;99.90
35960;DHT22;22043;50.970;7.192;2022-07-24T03:10:32;17.60;99.90
35960;DHT22;22043;50.970;7.192;2022-07-24T03:12:58;17.60;99.90
35960;DHT22;22043;50.970;7.192;2022-07-24T03:15:24;17.50;99.90
35960;DHT22;22043;50.970;7.192;2022-07-24T03:17:54;17.50;99.90
35960;DHT22;22043;50.970;7.192;2022-07-24T03:20:21;17.50;99.90
35960;DHT22;22043;50.970;7.192;2022-07-24T03:22:47;17.50;99.90
35960;DHT22;22043;50.970;7.192;2022-07-24T03:25:13;17.50;99.90
35960;DHT22;22043;50.970;7.192;2022-07-24T03:27:39;17.50;99.90
35960;DHT22;22043;50.970;7.192;2022-07-24T03:30:06;17.50;99.90
35960;DHT22;22043;50.970;7.192;2022-07-24T03:32:32;17.40;99.90
35960;DHT22;22043;50.970;7.192;2022-07-24T03:34:58;17.40;99.90
35960;DHT22;22043;50.970;7.192;2022-07-24T03:37:23;17.40;99.90
35960;DHT22;22043;50.970;7.192;2022-07-24T03:39:49;17.40;99.90
35960;DHT22;22043;50.970;7.192;2022-07-24T03:42:15;17.40;99.90
35960;DHT22;22043;50.970;7.192;2022-07-24T03:44:41;17.40;99.90
35960;DHT22;22043;50.970;7.192;2022-07-24T03:47:06;17.40;99.90
35960;DHT22;22043;50.970;7.192;2022-07-24T03:49:32;17.40;99.90
35960;DHT22;22043;50.970;7.192;2022-07-24T03:51:58;17.40;99.90
35960;DHT22;22043;50.970;7.192;2022-07-24T03:54:24;17.40;99.90
35960;DHT22;22043;50.970;7.192;2022-07-24T03:56:50;17.40;99.90
35960;DHT22;22043;50.970;7.192;2022-07-24T03:59:16;17.40;99.90
35960;DHT22;22043;50.970;7.192;2022-07-24T04:01:42;17.40;99.90
35960;DHT22;22043;50.970;7.192;2022-07-24T04:04:08;17.30;99.90
35960;DHT22;22043;50.970;7.192;2022-07-24T04:06:34;17.30;99.90
35960;DHT22;22043;50.970;7.192;2022-07-24T04:09:01;17.30;99.90
35960;DHT22;22043;50.970;7.192;2022-07-24T04:11:28;17.30;99.90
35960;DHT22;22043;50.970;7.192;2022-07-24T04:13:53;17.30;99.90
35960;DHT22;22043;50.970;7.192;2022-07-24T04:16:19;17.30;99.90
35960;DHT22;22043;50.970;7.192;2022-07-24T04:18:45;17.30;99.90
35960;DHT22;22043;50.970;7.192;2022-07-24T04:21:10;17.30;99.90
35960;DHT22;22043;50.970;7.192;2022-07-24T04:23:36;17.30;99.90
35960;DHT22;22043;50.970;7.192;2022-07-24T04:26:02;17.40;99.90
35960;DHT22;22043;50.970;7.192;2022-07-24T04:28:28;17.40;99.90
35960;DHT22;22043;50.970;7.192;2022-07-24T04:30:54;17.40;99.90
35960;DHT22;22043;50.970;7.192;2022-07-24T04:33:19;17.40;99.90
35960;DHT22;22043;50.970;7.192;2022-07-24T04:35:45;17.40;99.90
35960;DHT22;22043;50.970;7.192;2022-07-24T04:38:11;17.40;99.90
35960;DHT22;22043;50.970;7.192;2022-07-24T04:40:36;17.40;99.90
35960;DHT22;22043;50.970;7.192;2022-07-24T04:43:02;17.40;99.90
35960;DHT22;22043;50.970;7.192;2022-07-24T04:45:28;17.50;99.90
35960;DHT22;22043;50.970;7.192;2022-07-24T04:47:54;17.50;99.90
35960;DHT22;22043;50.970;7.192;2022-07-24T04:50:19;17.50;99.90
35960;DHT22;22043;50.970;7.192;2022-07-24T04:52:45;17.50;99.90
35960;DHT22;22043;50.970;7.192;2022-07-24T04:55:11;17.50;99.90
35960;DHT22;22043;50.970;7.192;2022-07-24T04:57:38;17.50;99.90
35960;DHT22;22043;50.970;7.192;2022-07-24T05:00:06;17.50;99.90
35960;DHT22;22043;50.970;7.192;2022-07-24T05:02:32;17.50;99.90
35960;DHT22;22043;50.970;7.192;2022-07-24T05:04:58;17.50;99.90
35960;DHT22;22043;50.970;7.192;2022-07-24T05:07:23;17.50;99.90
35960;DHT22;22043;50.970;7.192;2022-07-24T05:09:49;17.60;99.90
35960;DHT22;22043;50.970;7.192;2022-07-24T05:12:15;17.60;99.90
35960;DHT22;22043;50.970;7.192;2022-07-24T05:14:40;17.60;99.90
35960;DHT22;22043;50.970;7.192;2022-07-24T05:17:06;17.60;99.90
35960;DHT22;22043;50.970;7.192;2022-07-24T05:19:31;17.70;99.90
35960;DHT22;22043;50.970;7.192;2022-07-24T05:21:57;17.70;99.90
35960;DHT22;22043;50.970;7.192;2022-07-24T05:24:23;17.70;99.90
35960;DHT22;22043;50.970;7.192;2022-07-24T05:26:50;17.70;99.90
35960;DHT22;22043;50.970;7.192;2022-07-24T05:29:17;17.80;99.90
35960;DHT22;22043;50.970;7.192;2022-07-24T05:31:42;17.80;99.90
35960;DHT22;22043;50.970;7.192;2022-07-24T05:34:08;17.90;99.90
35960;DHT22;22043;50.970;7.192;2022-07-24T05:36:34;17.90;99.90
35960;DHT22;22043;50.970;7.192;2022-07-24T05:39:00;18.00;99.90
35960;DHT22;22043;50.970;7.192;2022-07-24T05:41:26;18.00;99.90
35960;DHT22;22043;50.970;7.192;2022-07-24T05:43:52;18.00;99.90
35960;DHT22;22043;50.970;7.192;2022-07-24T05:46:19;18.00;99.90
35960;DHT22;22043;50.970;7.192;2022-07-24T05:48:45;18.10;99.90
35960;DHT22;22043;50.970;7.192;2022-07-24T05:51:11;18.10;99.90
35960;DHT22;22043;50.970;7.192;2022-07-24T05:53:37;18.20;99.90
35960;DHT22;22043;50.970;7.192;2022-07-24T05:56:03;18.20;99.90
35960;DHT22;22043;50.970;7.192;2022-07-24T05:58:29;18.20;99.90
35960;DHT22;22043;50.970;7.192;2022-07-24T06:00:55;18.30;99.90
35960;DHT22;22043;50.970;7.192;2022-07-24T06:03:20;18.30;99.90
35960;DHT22;22043;50.970;7.192;2022-07-24T06:05:46;18.30;99.90
35960;DHT22;22043;50.970;7.192;2022-07-24T06:08:12;18.40;99.90
35960;DHT22;22043;50.970;7.192;2022-07-24T06:10:38;18.40;99.90
35960;DHT22;22043;50.970;7.192;2022-07-24T06:13:03;18.40;99.90
35960;DHT22;22043;50.970;7.192;2022-07-24T06:15:29;18.40;99.90
35960;DHT22;22043;50.970;7.192;2022-07-24T06:17:55;18.40;99.90
35960;DHT22;22043;50.970;7.192;2022-07-24T06:20:21;18.40;99.90
35960;DHT22;22043;50.970;7.192;2022-07-24T06:22:47;18.50;99.90
35960;DHT22;22043;50.970;7.192;2022-07-24T06:25:12;18.50;99.90
35960;DHT22;22043;50.970;7.192;2022-07-24T06:27:49;18.50;99.90
35960;DHT22;22043;50.970;7.192;2022-07-24T06:30:16;18.50;99.90
35960;DHT22;22043;50.970;7.192;2022-07-24T06:32:42;18.50;99.90
35960;DHT22;22043;50.970;7.192;2022-07-24T06:35:10;18.60;99.90
35960;DHT22;22043;50.970;7.192;2022-07-24T06:37:36;18.60;99.90
35960;DHT22;22043;50.970;7.192;2022-07-24T06:40:02;18.70;99.90
35960;DHT22;22043;50.970;7.192;2022-07-24T06:42:28;18.80;99.90
35960;DHT22;22043;50.970;7.192;2022-07-24T06:44:54;18.80;99.90
35960;DHT22;22043;50.970;7.192;2022-07-24T06:47:20;18.80;99.90
35960;DHT22;22043;50.970;7.192;2022-07-24T06:49:45;18.90;99.90
35960;DHT22;22043;50.970;7.192;2022-07-24T06:52:11;18.90;99.90
35960;DHT22;22043;50.970;7.192;2022-07-24T06:54:37;18.90;99.90
35960;DHT22;22043;50.970;7.192;2022-07-24T06:57:02;19.00;99.90
35960;DHT22;22043;50.970;7.192;2022-07-24T06:59:28;19.00;99.90
35960;DHT22;22043;50.970;7.192;2022-07-24T07:01:54;19.00;99.90
35960;DHT22;22043;50.970;7.192;2022-07-24T07:04:20;19.00;99.90
35960;DHT22;22043;50.970;7.192;2022-07-24T07:06:45;19.00;99.90
35960;DHT22;22043;50.970;7.192;2022-07-24T07:09:11;19.10;99.90
35960;DHT22;22043;50.970;7.192;2022-07-24T07:11:37;19.10;99.90
35960;DHT22;22043;50.970;7.192;2022-07-24T07:14:03;19.20;99.90
35960;DHT22;22043;50.970;7.192;2022-07-24T07:16:29;19.20;99.90
35960;DHT22;22043;50.970;7.192;2022-07-24T07:18:54;19.20;99.90
35960;DHT22;22043;50.970;7.192;2022-07-24T07:21:20;19.30;99.90
35960;DHT22;22043;50.970;7.192;2022-07-24T07:23:46;19.30;99.90
35960;DHT22;22043;50.970;7.192;2022-07-24T07:26:11;19.30;99.90
35960;DHT22;22043;50.970;7.192;2022-07-24T07:28:37;19.30;99.90
35960;DHT22;22043;50.970;7.192;2022-07-24T07:31:03;19.30;99.90
35960;DHT22;22043;50.970;7.192;2022-07-24T07:33:30;19.40;99.90
35960;DHT22;22043;50.970;7.192;2022-07-24T07:35:56;19.40;99.90
35960;DHT22;22043;50.970;7.192;2022-07-24T07:38:21;19.40;99.90
35960;DHT22;22043;50.970;7.192;2022-07-24T07:40:47;19.40;99.90
35960;DHT22;22043;50.970;7.192;2022-07-24T07:43:12;19.50;99.90
35960;DHT22;22043;50.970;7.192;2022-07-24T07:45:38;19.50;99.90
35960;DHT22;22043;50.970;7.192;2022-07-24T07:48:04;19.50;99.90
35960;DHT22;22043;50.970;7.192;2022-07-24T07:50:30;19.60;99.90
35960;DHT22;22043;50.970;7.192;2022-07-24T07:52:56;19.60;99.90
35960;DHT22;22043;50.970;7.192;2022-07-24T07:55:22;19.60;99.90
35960;DHT22;22043;50.970;7.192;2022-07-24T07:57:47;19.60;99.90
35960;DHT22;22043;50.970;7.192;2022-07-24T08:00:14;19.60;99.90
35960;DHT22;22043;50.970;7.192;2022-07-24T08:02:40;19.70;99.90
35960;DHT22;22043;50.970;7.192;2022-07-24T08:05:07;19.70;99.90
35960;DHT22;22043;50.970;7.192;2022-07-24T08:07:33;19.70;99.90
35960;DHT22;22043;50.970;7.192;2022-07-24T08:09:59;19.70;99.90
35960;DHT22;22043;50.970;7.192;2022-07-24T08:12:24;19.70;99.90
35960;DHT22;22043;50.970;7.192;2022-07-24T08:14:50;19.70;99.90
35960;DHT22;22043;50.970;7.192;2022-07-24T08:17:16;19.80;99.90
35960;DHT22;22043;50.970;7.192;2022-07-24T08:19:41;19.80;99.90
35960;DHT22;22043;50.970;7.192;2022-07-24T08:22:07;19.80;99.90
35960;DHT22;22043;50.970;7.192;2022-07-24T08:24:33;19.80;99.90
35960;DHT22;22043;50.970;7.192;2022-07-24T08:26:59;19.80;99.90
35960;DHT22;22043;50.970;7.192;2022-07-24T08:29:26;19.80;99.90
35960;DHT22;22043;50.970;7.192;2022-07-24T08:31:52;19.80;99.90
35960;DHT22;22043;50.970;7.192;2022-07-24T08:34:18;19.80;99.90
35960;DHT22;22043;50.970;7.192;2022-07-24T08:36:43;19.80;99.90
35960;DHT22;22043;50.970;7.192;2022-07-24T08:39:14;19.90;99.90
35960;DHT22;22043;50.970;7.192;2022-07-24T08:41:41;19.90;99.90
35960;DHT22;22043;50.970;7.192;2022-07-24T08:44:07;19.90;99.90
35960;DHT22;22043;50.970;7.192;2022-07-24T08:46:37;19.90;99.90
35960;DHT22;22043;50.970;7.192;2022-07-24T08:49:09;19.90;99.90
35960;DHT22;22043;50.970;7.192;2022-07-24T08:51:37;19.90;99.90
35960;DHT22;22043;50.970;7.192;2022-07-24T08:54:04;20.00;99.90
35960;DHT22;22043;50.970;7.192;2022-07-24T08:56:30;20.00;99.90
35960;DHT22;22043;50.970;7.192;2022-07-24T08:58:55;20.10;99.90
35960;DHT22;22043;50.970;7.192;2022-07-24T09:01:22;20.00;99.90
35960;DHT22;22043;50.970;7.192;2022-07-24T09:03:48;20.00;99.90
35960;DHT22;22043;50.970;7.192;2022-07-24T09:06:15;20.10;99.90
35960;DHT22;22043;50.970;7.192;2022-07-24T09:09:00;20.10;99.90
35960;DHT22;22043;50.970;7.192;2022-07-24T09:11:28;20.20;99.90
35960;DHT22;22043;50.970;7.192;2022-07-24T09:14:00;20.20;99.90
35960;DHT22;22043;50.970;7.192;2022-07-24T09:16:46;20.20;99.90
35960;DHT22;22043;50.970;7.192;2022-07-24T09:19:12;20.30;99.90
35960;DHT22;22043;50.970;7.192;2022-07-24T09:21:40;20.30;99.90
35960;DHT22;22043;50.970;7.192;2022-07-24T09:24:11;20.30;99.90
35960;DHT22;22043;50.970;7.192;2022-07-24T09:26:47;20.30;99.90
35960;DHT22;22043;50.970;7.192;2022-07-24T09:29:14;20.40;99.90
35960;DHT22;22043;50.970;7.192;2022-07-24T09:31:53;20.40;99.90
35960;DHT22;22043;50.970;7.192;2022-07-24T09:34:20;20.40;99.90
35960;DHT22;22043;50.970;7.192;2022-07-24T09:36:59;20.40;99.90
35960;DHT22;22043;50.970;7.192;2022-07-24T09:39:27;20.40;99.90
35960;DHT22;22043;50.970;7.192;2022-07-24T09:41:54;20.30;99.90
35960;DHT22;22043;50.970;7.192;2022-07-24T09:44:20;20.40;99.90
35960;DHT22;22043;50.970;7.192;2022-07-24T09:46:47;20.40;99.90
35960;DHT22;22043;50.970;7.192;2022-07-24T09:49:20;20.40;99.90
35960;DHT22;22043;50.970;7.192;2022-07-24T09:52:07;20.40;99.90
35960;DHT22;22043;50.970;7.192;2022-07-24T09:54:36;20.40;99.90
35960;DHT22;22043;50.970;7.192;2022-07-24T09:57:22;20.40;99.90
35960;DHT22;22043;50.970;7.192;2022-07-24T09:59:53;20.40;99.90
35960;DHT22;22043;50.970;7.192;2022-07-24T10:02:22;20.50;99.90
35960;DHT22;22043;50.970;7.192;2022-07-24T10:04:49;20.50;99.90
35960;DHT22;22043;50.970;7.192;2022-07-24T10:07:18;20.50;99.90
35960;DHT22;22043;50.970;7.192;2022-07-24T10:09:50;20.50;99.90
35960;DHT22;22043;50.970;7.192;2022-07-24T10:12:27;20.70;99.90
35960;DHT22;22043;50.970;7.192;2022-07-24T10:14:56;20.70;99.90
35960;DHT22;22043;50.970;7.192;2022-07-24T10:17:25;20.70;99.90
35960;DHT22;22043;50.970;7.192;2022-07-24T10:19:53;20.80;99.90
35960;DHT22;22043;50.970;7.192;2022-07-24T10:22:21;20.90;99.90
35960;DHT22;22043;50.970;7.192;2022-07-24T10:27:28;21.00;99.90
35960;DHT22;22043;50.970;7.192;2022-07-24T10:29:56;21.00;99.90
35960;DHT22;22043;50.970;7.192;2022-07-24T10:32:24;21.10;99.90
35960;DHT22;22043;50.970;7.192;2022-07-24T10:37:37;21.10;99.90
35960;DHT22;22043;50.970;7.192;2022-07-24T10:42:33;21.10;99.90
35960;DHT22;22043;50.970;7.192;2022-07-24T10:45:18;21.10;99.90
35960;DHT22;22043;50.970;7.192;2022-07-24T10:47:45;21.30;99.90
35960;DHT22;22043;50.970;7.192;2022-07-24T10:50:12;21.50;99.90
35960;DHT22;22043;50.970;7.192;2022-07-24T10:52:40;21.60;99.90
35960;DHT22;22043;50.970;7.192;2022-07-24T10:55:29;21.70;99.90
35960;DHT22;22043;50.970;7.192;2022-07-24T10:58:01;21.90;99.90
35960;DHT22;22043;50.970;7.192;2022-07-24T11:00:31;21.90;99.90
35960;DHT22;22043;50.970;7.192;2022-07-24T11:03:04;22.00;99.90
35960;DHT22;22043;50.970;7.192;2022-07-24T11:05:35;21.80;99.90
35960;DHT22;22043;50.970;7.192;2022-07-24T11:08:25;21.80;99.90
35960;DHT22;22043;50.970;7.192;2022-07-24T11:10:58;21.70;99.90
35960;DHT22;22043;50.970;7.192;2022-07-24T11:18:37;21.70;99.90
35960;DHT22;22043;50.970;7.192;2022-07-24T11:21:03;21.60;99.90
35960;DHT22;22043;50.970;7.192;2022-07-24T11:23:29;21.70;99.90
35960;DHT22;22043;50.970;7.192;2022-07-24T11:32:05;21.70;99.90
35960;DHT22;22043;50.970;7.192;2022-07-24T11:34:33;21.80;99.90
35960;DHT22;22043;50.970;7.192;2022-07-24T11:37:00;21.90;99.90
35960;DHT22;22043;50.970;7.192;2022-07-24T11:39:28;21.90;99.90
35960;DHT22;22043;50.970;7.192;2022-07-24T11:42:05;22.00;99.90
35960;DHT22;22043;50.970;7.192;2022-07-24T11:44:33;21.90;99.90
35960;DHT22;22043;50.970;7.192;2022-07-24T11:47:14;22.00;99.90
35960;DHT22;22043;50.970;7.192;2022-07-24T11:52:35;22.00;99.90
35960;DHT22;22043;50.970;7.192;2022-07-24T11:55:15;22.00;99.90
35960;DHT22;22043;50.970;7.192;2022-07-24T11:57:51;22.00;99.90
35960;DHT22;22043;50.970;7.192;2022-07-24T12:00:20;21.90;99.90
35960;DHT22;22043;50.970;7.192;2022-07-24T12:02:48;21.80;99.90
35960;DHT22;22043;50.970;7.192;2022-07-24T12:05:27;21.80;99.90
35960;DHT22;22043;50.970;7.192;2022-07-24T12:07:54;21.80;99.90
35960;DHT22;22043;50.970;7.192;2022-07-24T12:10:21;21.80;99.90
35960;DHT22;22043;50.970;7.192;2022-07-24T12:12:50;21.80;99.90
35960;DHT22;22043;50.970;7.192;2022-07-24T12:15:16;21.70;99.90
35960;DHT22;22043;50.970;7.192;2022-07-24T12:18:04;21.70;99.90
35960;DHT22;22043;50.970;7.192;2022-07-24T12:20:31;21.80;99.90
35960;DHT22;22043;50.970;7.192;2022-07-24T12:22:58;21.80;99.90
35960;DHT22;22043;50.970;7.192;2022-07-24T12:25:24;21.90;99.90
35960;DHT22;22043;50.970;7.192;2022-07-24T12:27:52;21.90;99.90
35960;DHT22;22043;50.970;7.192;2022-07-24T12:30:28;22.10;99.90
35960;DHT22;22043;50.970;7.192;2022-07-24T12:35:30;22.10;99.90
35960;DHT22;22043;50.970;7.192;2022-07-24T12:37:57;22.20;99.90
35960;DHT22;22043;50.970;7.192;2022-07-24T12:40:31;22.30;99.90
35960;DHT22;22043;50.970;7.192;2022-07-24T12:42:59;22.40;99.90
35960;DHT22;22043;50.970;7.192;2022-07-24T12:45:25;22.40;99.90
35960;DHT22;22043;50.970;7.192;2022-07-24T12:48:30;22.50;99.90
35960;DHT22;22043;50.970;7.192;2022-07-24T12:51:02;22.60;99.90
35960;DHT22;22043;50.970;7.192;2022-07-24T12:53:30;22.60;99.90
35960;DHT22;22043;50.970;7.192;2022-07-24T12:56:02;22.60;99.90
35960;DHT22;22043;50.970;7.192;2022-07-24T12:58:28;22.70;99.90
35960;DHT22;22043;50.970;7.192;2022-07-24T13:00:57;22.70;99.90
35960;DHT22;22043;50.970;7.192;2022-07-24T13:03:26;22.70;99.90
35960;DHT22;22043;50.970;7.192;2022-07-24T13:05:55;22.60;99.90
35960;DHT22;22043;50.970;7.192;2022-07-24T13:08:21;22.60;99.90
35960;DHT22;22043;50.970;7.192;2022-07-24T13:10:46;22.50;99.90
35960;DHT22;22043;50.970;7.192;2022-07-24T13:13:12;22.40;99.90
35960;DHT22;22043;50.970;7.192;2022-07-24T13:15:38;22.30;99.90
35960;DHT22;22043;50.970;7.192;2022-07-24T13:18:04;22.40;99.90
35960;DHT22;22043;50.970;7.192;2022-07-24T13:20:29;22.50;99.90
35960;DHT22;22043;50.970;7.192;2022-07-24T13:22:55;22.50;99.90
35960;DHT22;22043;50.970;7.192;2022-07-24T13:25:21;22.40;99.90
35960;DHT22;22043;50.970;7.192;2022-07-24T13:27:47;22.30;99.90
35960;DHT22;22043;50.970;7.192;2022-07-24T13:30:13;22.30;99.90
35960;DHT22;22043;50.970;7.192;2022-07-24T13:32:39;22.20;99.90
35960;DHT22;22043;50.970;7.192;2022-07-24T13:35:05;22.20;99.90
35960;DHT22;22043;50.970;7.192;2022-07-24T13:37:31;22.30;99.90
35960;DHT22;22043;50.970;7.192;2022-07-24T13:39:56;22.40;99.90
35960;DHT22;22043;50.970;7.192;2022-07-24T13:42:22;22.60;99.90
35960;DHT22;22043;50.970;7.192;2022-07-24T13:44:48;23.00;99.90
35960;DHT22;22043;50.970;7.192;2022-07-24T13:47:13;23.00;99.90
35960;DHT22;22043;50.970;7.192;2022-07-24T13:49:39;23.00;99.90
35960;DHT22;22043;50.970;7.192;2022-07-24T13:52:05;22.90;99.90
35960;DHT22;22043;50.970;7.192;2022-07-24T13:54:31;22.90;99.90
35960;DHT22;22043;50.970;7.192;2022-07-24T13:56:57;22.70;99.90
35960;DHT22;22043;50.970;7.192;2022-07-24T13:59:23;22.60;99.90
35960;DHT22;22043;50.970;7.192;2022-07-24T14:01:48;22.80;99.90
35960;DHT22;22043;50.970;7.192;2022-07-24T14:04:14;22.90;99.90
35960;DHT22;22043;50.970;7.192;2022-07-24T14:06:40;23.00;99.90
35960;DHT22;22043;50.970;7.192;2022-07-24T14:09:06;23.00;99.90
35960;DHT22;22043;50.970;7.192;2022-07-24T14:11:31;22.90;99.90
35960;DHT22;22043;50.970;7.192;2022-07-24T14:13:59;23.00;99.90
35960;DHT22;22043;50.970;7.192;2022-07-24T14:16:25;23.00;99.90
35960;DHT22;22043;50.970;7.192;2022-07-24T14:18:50;23.00;99.90
35960;DHT22;22043;50.970;7.192;2022-07-24T14:21:16;22.80;99.90
35960;DHT22;22043;50.970;7.192;2022-07-24T14:23:42;22.70;99.90
35960;DHT22;22043;50.970;7.192;2022-07-24T14:26:07;22.60;99.90
35960;DHT22;22043;50.970;7.192;2022-07-24T14:28:33;22.50;99.90
35960;DHT22;22043;50.970;7.192;2022-07-24T14:30:59;22.40;99.90
35960;DHT22;22043;50.970;7.192;2022-07-24T14:33:25;22.30;99.90
35960;DHT22;22043;50.970;7.192;2022-07-24T14:35:50;22.20;99.90
35960;DHT22;22043;50.970;7.192;2022-07-24T14:38:16;22.20;99.90
35960;DHT22;22043;50.970;7.192;2022-07-24T14:40:43;22.20;99.90
35960;DHT22;22043;50.970;7.192;2022-07-24T14:43:09;22.30;99.90
35960;DHT22;22043;50.970;7.192;2022-07-24T14:45:34;22.30;99.90
35960;DHT22;22043;50.970;7.192;2022-07-24T14:48:00;22.30;99.90
35960;DHT22;22043;50.970;7.192;2022-07-24T14:50:26;22.40;99.90
35960;DHT22;22043;50.970;7.192;2022-07-24T14:52:52;22.30;99.90
35960;DHT22;22043;50.970;7.192;2022-07-24T14:55:17;22.50;99.90
35960;DHT22;22043;50.970;7.192;2022-07-24T14:57:43;22.50;99.90
35960;DHT22;22043;50.970;7.192;2022-07-24T15:00:09;22.40;99.90
35960;DHT22;22043;50.970;7.192;2022-07-24T15:02:35;22.60;99.90
35960;DHT22;22043;50.970;7.192;2022-07-24T15:05:01;22.60;99.90
35960;DHT22;22043;50.970;7.192;2022-07-24T15:07:26;22.60;99.90
35960;DHT22;22043;50.970;7.192;2022-07-24T15:09:52;22.60;99.90
35960;DHT22;22043;50.970;7.192;2022-07-24T15:12:18;22.60;99.90
35960;DHT22;22043;50.970;7.192;2022-07-24T15:14:43;22.50;99.90
35960;DHT22;22043;50.970;7.192;2022-07-24T15:17:10;22.50;99.90
35960;DHT22;22043;50.970;7.192;2022-07-24T15:19:35;22.60;99.90
35960;DHT22;22043;50.970;7.192;2022-07-24T15:22:01;22.60;99.90
35960;DHT22;22043;50.970;7.192;2022-07-24T15:24:27;22.50;99.90
35960;DHT22;22043;50.970;7.192;2022-07-24T15:26:52;22.40;99.90
35960;DHT22;22043;50.970;7.192;2022-07-24T15:29:18;22.30;99.90
35960;DHT22;22043;50.970;7.192;2022-07-24T15:31:44;22.20;99.90
35960;DHT22;22043;50.970;7.192;2022-07-24T15:34:14;22.10;99.90
35960;DHT22;22043;50.970;7.192;2022-07-24T15:36:40;22.10;99.90
35960;DHT22;22043;50.970;7.192;2022-07-24T15:39:08;22.10;99.90
35960;DHT22;22043;50.970;7.192;2022-07-24T15:41:34;22.10;99.90
35960;DHT22;22043;50.970;7.192;2022-07-24T15:44:00;22.10;99.90
35960;DHT22;22043;50.970;7.192;2022-07-24T15:46:25;22.20;99.90
35960;DHT22;22043;50.970;7.192;2022-07-24T15:48:51;22.30;99.90
35960;DHT22;22043;50.970;7.192;2022-07-24T15:51:17;22.20;99.90
35960;DHT22;22043;50.970;7.192;2022-07-24T15:53:43;22.20;99.90